createdAt,value
2018-06-12T00:04:52.881Z,12.82
2018-06-12T00:10:22.993Z,10.70
2018-06-12T00:15:53.351Z,7.40
2018-06-12T00:21:23.433Z,6.40
2018-06-12T00:26:53.639Z,6.00
2018-06-12T00:32:23.521Z,4.65
2018-06-12T00:37:53.635Z,4.17
2018-06-12T00:43:23.780Z,9.98
2018-06-12T00:48:53.691Z,5.75
2018-06-12T00:54:23.749Z,6.58
2018-06-12T00:59:53.581Z,5.72
2018-06-12T01:05:23.883Z,7.35
2018-06-12T01:10:53.743Z,6.80
2018-06-12T01:16:23.477Z,4.62
2018-06-12T01:21:53.495Z,4.20
2018-06-12T01:27:23.590Z,5.37
2018-06-12T01:32:53.645Z,5.17
2018-06-12T01:38:23.553Z,10.53
2018-06-12T01:43:53.654Z,4.62
2018-06-12T01:49:23.617Z,6.97
2018-06-12T01:54:53.758Z,5.80
2018-06-12T02:00:24.475Z,4.22
2018-06-12T02:05:55.058Z,5.72
2018-06-12T02:17:23.098Z,4.50
2018-06-12T02:22:59.017Z,5.00
2018-06-12T02:28:28.298Z,6.00
2018-06-12T02:33:57.985Z,9.60
2018-06-12T02:39:30.312Z,8.90
2018-06-12T02:45:00.322Z,10.63
2018-06-12T02:50:29.553Z,8.70
2018-06-12T02:55:59.853Z,9.18
2018-06-12T03:01:31.163Z,12.50
2018-06-12T03:07:00.584Z,8.15
2018-06-12T03:12:29.925Z,12.03
2018-06-12T03:17:59.213Z,10.08
2018-06-12T03:23:30.119Z,8.28
2018-06-12T03:29:01.406Z,9.08
2018-06-12T03:34:30.710Z,9.60
2018-06-12T03:39:59.955Z,8.60
2018-06-12T03:45:29.169Z,9.63
2018-06-12T03:50:59.187Z,10.25
2018-06-12T03:56:29.220Z,12.60
2018-06-12T04:01:58.458Z,9.73
2018-06-12T04:07:27.717Z,11.63
2018-06-12T04:12:57.171Z,16.23
2018-06-12T04:18:26.986Z,16.15
2018-06-12T04:23:57.714Z,15.90
2018-06-12T04:29:31.413Z,9.85
2018-06-12T04:35:00.706Z,10.63
2018-06-12T04:40:29.962Z,14.95
2018-06-12T04:46:08.383Z,12.25
2018-06-12T04:51:37.702Z,12.65
2018-06-12T04:57:07.002Z,15.43
2018-06-12T05:02:36.445Z,14.18
2018-06-12T05:08:05.693Z,13.08
2018-06-12T05:13:34.894Z,13.05
2018-06-12T05:19:04.267Z,11.35
2018-06-12T05:24:33.456Z,9.85
2018-06-12T05:30:03.188Z,11.25
2018-06-12T05:35:53.549Z,9.83
2018-06-12T05:41:33.861Z,16.90
2018-06-12T05:47:03.739Z,15.18
2018-06-12T05:52:33.009Z,16.40
2018-06-12T05:58:34.646Z,11.88
2018-06-12T06:04:03.896Z,18.82
2018-06-12T06:09:47.546Z,17.20
2018-06-12T06:15:29.132Z,15.83
2018-06-12T06:20:59.983Z,13.25
2018-06-12T06:32:31.535Z,12.88
2018-06-12T06:38:00.779Z,10.30
2018-06-12T06:43:29.997Z,14.15
2018-06-12T06:48:59.388Z,22.85
2018-06-12T06:54:28.598Z,10.30
2018-06-12T06:59:59.024Z,12.85
2018-06-12T07:05:33.000Z,7.53
2018-06-12T07:11:02.287Z,9.48
2018-06-12T07:16:32.352Z,13.68
2018-06-12T07:22:01.552Z,12.35
2018-06-12T07:27:30.792Z,11.80
2018-06-12T07:33:37.650Z,17.95
2018-06-12T07:44:48.339Z,11.78
2018-06-12T07:50:18.079Z,13.95
2018-06-12T07:55:47.737Z,7.87
2018-06-12T08:01:37.154Z,4.80
2018-06-12T08:07:06.764Z,4.37
2018-06-12T08:12:35.960Z,3.15
2018-06-12T08:18:05.362Z,4.33
2018-06-12T08:23:35.172Z,5.80
2018-06-12T08:29:04.376Z,4.87
2018-06-12T08:34:33.685Z,7.92
2018-06-12T08:40:02.899Z,7.78
2018-06-12T08:45:32.135Z,5.33
2018-06-12T08:51:01.366Z,7.92
2018-06-12T08:56:30.550Z,4.33
2018-06-12T09:01:59.787Z,4.85
2018-06-12T09:07:29.011Z,4.55
2018-06-12T09:12:58.293Z,4.53
2018-06-12T09:18:28.823Z,5.30
2018-06-12T09:23:58.089Z,6.10
2018-06-12T09:29:27.525Z,5.62
2018-06-12T09:34:56.869Z,5.67
2018-06-12T09:40:30.856Z,8.48
2018-06-12T09:46:00.114Z,4.65
2018-06-12T09:51:30.104Z,5.65
2018-06-12T09:56:59.374Z,9.73
2018-06-12T10:02:28.602Z,3.65
2018-06-12T10:07:57.885Z,7.37
2018-06-12T10:13:52.079Z,6.37
2018-06-12T10:19:21.599Z,5.37
2018-06-12T10:24:57.634Z,9.88
2018-06-12T10:30:26.845Z,4.28
2018-06-12T10:35:56.091Z,6.80
2018-06-12T10:41:25.464Z,6.47
2018-06-12T10:46:54.808Z,5.25
2018-06-12T10:52:25.912Z,7.03
2018-06-12T10:58:18.933Z,7.35
2018-06-12T11:03:50.830Z,8.40
2018-06-12T11:09:24.630Z,9.30
2018-06-12T11:14:57.121Z,6.47
2018-06-12T11:20:27.023Z,9.43
2018-06-12T11:25:56.446Z,7.65
2018-06-12T11:31:26.159Z,4.90
2018-06-12T11:36:55.359Z,5.08
2018-06-12T11:42:25.364Z,9.28
2018-06-12T11:47:54.955Z,7.05
2018-06-12T11:53:27.687Z,4.12
2018-06-12T11:59:01.074Z,3.58
2018-06-12T12:04:30.459Z,5.83
2018-06-12T12:09:59.694Z,4.78
2018-06-12T12:15:28.921Z,5.28
2018-06-12T12:21:01.799Z,6.10
2018-06-12T12:26:34.360Z,4.20
2018-06-12T12:32:04.425Z,5.58
2018-06-12T12:37:33.689Z,6.78
2018-06-12T12:43:03.732Z,5.90
2018-06-12T12:48:32.967Z,5.47
2018-06-12T12:54:02.207Z,8.00
2018-06-12T12:59:31.407Z,5.58
2018-06-12T13:05:00.989Z,10.35
2018-06-12T13:10:29.952Z,5.35
2018-06-12T13:16:34.895Z,7.17
2018-06-12T13:22:04.274Z,4.40
2018-06-12T13:27:33.584Z,9.25
2018-06-12T13:33:02.855Z,15.08
2018-06-12T13:38:32.066Z,10.68
2018-06-12T13:44:01.390Z,9.43
2018-06-12T13:49:30.664Z,7.12
2018-06-12T13:55:00.267Z,4.45
2018-06-12T14:00:29.574Z,7.10
2018-06-12T14:05:58.796Z,6.03
2018-06-12T14:11:28.181Z,10.35
2018-06-12T14:16:57.415Z,10.05
2018-06-12T14:22:30.869Z,9.25
2018-06-12T14:28:00.123Z,8.38
2018-06-12T14:33:30.763Z,13.32
2018-06-12T14:38:59.977Z,8.23
2018-06-12T14:44:33.394Z,12.15
2018-06-12T14:50:23.901Z,9.70
2018-06-12T14:55:56.698Z,13.08
2018-06-12T15:01:26.306Z,8.90
2018-06-12T15:07:04.464Z,18.50
2018-06-12T15:12:33.706Z,16.17
2018-06-12T15:18:02.995Z,18.32
2018-06-12T15:23:32.299Z,9.50
2018-06-12T15:29:01.620Z,6.72
2018-06-12T15:34:30.864Z,7.03
2018-06-12T15:40:00.120Z,21.65
2018-06-12T15:45:29.098Z,12.18
2018-06-12T15:50:58.416Z,15.40
2018-06-12T15:56:49.906Z,15.33
2018-06-12T16:02:22.713Z,24.05
2018-06-12T16:07:54.263Z,22.45
2018-06-12T16:13:26.156Z,19.77
2018-06-12T16:18:57.407Z,14.23
2018-06-12T16:24:29.987Z,11.12
2018-06-12T16:29:59.277Z,16.50
2018-06-12T16:35:28.622Z,15.10
2018-06-12T16:40:57.995Z,10.87
2018-06-12T16:46:27.160Z,7.45
2018-06-12T16:51:56.948Z,9.98
2018-06-12T16:57:26.311Z,7.75
2018-06-12T17:02:57.699Z,9.03
2018-06-12T17:08:27.440Z,11.55
2018-06-12T17:13:59.074Z,5.33
2018-06-12T17:19:31.149Z,4.80
2018-06-12T17:25:01.340Z,6.40
2018-06-12T17:30:31.907Z,7.83
2018-06-12T17:36:01.303Z,11.65
2018-06-12T17:41:30.574Z,6.62
2018-06-12T17:46:59.969Z,8.23
2018-06-12T17:52:30.544Z,8.23
2018-06-12T17:58:03.713Z,12.10
2018-06-12T18:03:36.836Z,9.90
2018-06-12T18:09:08.326Z,6.42
2018-06-12T18:14:40.882Z,9.75
2018-06-12T18:20:20.884Z,8.05
2018-06-12T18:25:50.601Z,8.78
2018-06-12T18:31:20.001Z,5.37
2018-06-12T18:36:49.861Z,7.50
2018-06-12T18:42:19.640Z,9.55
2018-06-12T18:47:50.090Z,7.08
2018-06-12T18:53:19.655Z,11.10
2018-06-12T18:58:50.760Z,7.45
2018-06-12T19:04:21.544Z,8.10
2018-06-12T19:09:54.696Z,7.60
2018-06-12T19:15:25.619Z,4.87
2018-06-12T19:20:56.614Z,6.15
2018-06-12T19:26:27.344Z,8.25
2018-06-12T19:31:57.367Z,5.70
2018-06-12T19:37:26.792Z,5.78
2018-06-12T19:42:56.179Z,6.20
2018-06-12T19:48:25.900Z,7.53
2018-06-12T19:53:59.032Z,5.55
2018-06-12T19:59:28.452Z,6.33
2018-06-12T20:04:58.179Z,3.55
2018-06-12T20:10:28.365Z,4.65
2018-06-12T20:15:59.491Z,5.80
2018-06-12T20:21:30.749Z,4.40
2018-06-12T20:27:01.017Z,2.25
2018-06-12T20:32:30.473Z,4.25
2018-06-12T20:37:59.883Z,4.15
2018-06-12T20:43:46.482Z,3.30
2018-06-12T20:49:17.836Z,3.17
2018-06-12T20:54:50.612Z,4.90
2018-06-12T21:00:22.586Z,7.62
2018-06-12T21:05:52.289Z,4.83
2018-06-12T21:11:22.016Z,6.35
2018-06-12T21:16:51.569Z,9.18
2018-06-12T21:22:21.092Z,5.90
2018-06-12T21:27:51.559Z,6.03
2018-06-12T21:33:21.449Z,6.17
2018-06-12T21:38:51.319Z,3.80
2018-06-12T21:44:20.735Z,5.00
2018-06-12T21:49:50.149Z,3.27
2018-06-12T21:55:23.407Z,6.10
2018-06-12T22:00:52.870Z,4.37
2018-06-12T22:06:23.285Z,6.92
2018-06-12T22:11:52.901Z,6.28
2018-06-12T22:17:22.340Z,6.35
2018-06-12T22:22:52.137Z,6.62
2018-06-12T22:28:21.815Z,4.37
2018-06-12T22:33:51.192Z,8.18
2018-06-12T22:39:20.498Z,5.08
2018-06-12T22:44:49.691Z,6.35
2018-06-12T22:50:19.101Z,6.97
2018-06-12T22:55:48.483Z,5.97
2018-06-12T23:01:17.755Z,6.47
2018-06-12T23:06:47.023Z,6.45
2018-06-12T23:12:16.444Z,5.22
2018-06-12T23:17:47.136Z,7.28
2018-06-12T23:23:16.545Z,7.58
2018-06-12T23:28:46.622Z,6.00
2018-06-12T23:34:16.152Z,5.65
2018-06-12T23:39:45.842Z,3.87
2018-06-12T23:45:15.716Z,5.50
2018-06-12T23:50:45.512Z,5.92
2018-06-12T23:56:17.084Z,4.80
